createdAt,value
2022-09-07T00:02:08.276Z,99.90
2022-09-07T00:04:35.544Z,99.90
2022-09-07T00:07:02.771Z,99.90
2022-09-07T00:09:30.037Z,99.90
2022-09-07T00:11:57.229Z,99.90
2022-09-07T00:14:24.422Z,99.90
2022-09-07T00:16:51.672Z,99.90
2022-09-07T00:19:18.945Z,99.90
2022-09-07T00:21:46.359Z,99.90
2022-09-07T00:24:13.546Z,99.90
2022-09-07T00:26:40.798Z,99.90
2022-09-07T00:29:08.087Z,99.90
2022-09-07T00:31:35.680Z,99.90
2022-09-07T00:34:03.396Z,99.90
2022-09-07T00:36:30.619Z,99.90
2022-09-07T00:38:58.351Z,99.90
2022-09-07T00:41:25.657Z,99.90
2022-09-07T00:44:19.745Z,99.90
2022-09-07T00:46:47.124Z,99.90
2022-09-07T00:49:17.130Z,99.90
2022-09-07T00:51:54.329Z,99.90
2022-09-07T00:54:23.815Z,99.90
2022-09-07T00:56:52.637Z,99.90
2022-09-07T00:59:22.066Z,99.90
2022-09-07T01:01:49.379Z,99.90
2022-09-07T01:04:16.687Z,99.90
2022-09-07T01:06:44.309Z,99.90
2022-09-07T01:09:14.318Z,99.90
2022-09-07T01:11:41.595Z,99.90
2022-09-07T01:14:10.678Z,99.90
2022-09-07T01:16:45.325Z,99.90
2022-09-07T01:19:31.475Z,99.90
2022-09-07T01:22:18.208Z,99.90
2022-09-07T01:25:03.538Z,99.90
2022-09-07T01:28:04.589Z,99.90
2022-09-07T01:30:39.133Z,99.90
2022-09-07T01:33:32.778Z,99.90
2022-09-07T01:36:36.398Z,99.90
2022-09-07T01:39:04.934Z,99.90
2022-09-07T01:41:54.731Z,99.90
2022-09-07T01:44:34.655Z,99.90
2022-09-07T01:47:22.486Z,99.90
2022-09-07T01:50:14.916Z,99.90
2022-09-07T01:52:51.429Z,99.90
2022-09-07T01:55:21.392Z,99.90
2022-09-07T01:58:06.164Z,99.90
2022-09-07T02:00:33.636Z,99.90
2022-09-07T02:03:11.710Z,99.90
2022-09-07T02:05:52.008Z,99.90
2022-09-07T02:08:24.267Z,99.90
2022-09-07T02:11:01.931Z,99.90
2022-09-07T02:14:04.329Z,99.90
2022-09-07T02:16:33.355Z,99.90
2022-09-07T02:19:10.136Z,99.90
2022-09-07T02:21:42.167Z,99.90
2022-09-07T02:24:27.656Z,99.90
2022-09-07T02:26:54.965Z,99.90
2022-09-07T02:29:22.179Z,99.90
2022-09-07T02:31:51.370Z,99.90
2022-09-07T02:34:18.915Z,99.90
2022-09-07T02:36:47.827Z,99.90
2022-09-07T02:39:15.054Z,99.90
2022-09-07T02:41:43.285Z,99.90
2022-09-07T02:44:21.545Z,99.90
2022-09-07T02:46:54.639Z,99.90
2022-09-07T02:49:36.808Z,99.90
2022-09-07T02:52:23.424Z,99.90
2022-09-07T02:54:58.045Z,99.90
2022-09-07T02:57:47.701Z,99.90
2022-09-07T03:00:16.557Z,99.90
2022-09-07T03:02:46.830Z,99.90
2022-09-07T03:05:30.239Z,99.90
2022-09-07T03:08:01.343Z,99.90
2022-09-07T03:10:28.601Z,99.90
2022-09-07T03:12:55.814Z,99.90
2022-09-07T03:15:24.644Z,99.90
2022-09-07T03:17:52.419Z,99.90
2022-09-07T03:20:20.746Z,99.90
2022-09-07T03:22:48.869Z,99.90
2022-09-07T03:25:16.338Z,99.90
2022-09-07T03:27:43.555Z,99.90
2022-09-07T03:30:11.523Z,99.90
2022-09-07T03:32:39.163Z,99.90
2022-09-07T03:35:07.654Z,99.90
2022-09-07T03:37:38.151Z,99.90
2022-09-07T03:40:06.687Z,99.90
2022-09-07T03:42:33.961Z,99.90
2022-09-07T03:45:01.244Z,99.90
2022-09-07T03:47:28.564Z,99.90
2022-09-07T03:49:55.963Z,99.90
2022-09-07T03:52:23.186Z,99.90
2022-09-07T03:54:50.446Z,99.90
2022-09-07T03:57:20.117Z,99.90
2022-09-07T03:59:47.345Z,99.90
2022-09-07T04:02:14.582Z,99.90
2022-09-07T04:04:46.085Z,99.90
2022-09-07T04:07:14.054Z,99.90
2022-09-07T04:09:41.296Z,99.90
2022-09-07T04:12:08.597Z,99.90
2022-09-07T04:14:35.798Z,99.90
2022-09-07T04:17:03.050Z,99.90
2022-09-07T04:19:30.432Z,99.90
2022-09-07T04:21:57.665Z,99.90
2022-09-07T04:24:24.908Z,99.90
2022-09-07T04:26:52.335Z,99.90
2022-09-07T04:29:19.570Z,99.90
2022-09-07T04:31:46.743Z,99.90
2022-09-07T04:34:13.998Z,99.90
2022-09-07T04:36:41.214Z,99.90
2022-09-07T04:39:08.460Z,99.90
2022-09-07T04:41:35.663Z,99.90
2022-09-07T04:44:03.306Z,99.90
2022-09-07T04:46:33.728Z,99.90
2022-09-07T04:49:02.544Z,99.90
2022-09-07T04:51:30.864Z,99.90
2022-09-07T04:53:59.577Z,99.90
2022-09-07T04:56:26.897Z,99.90
2022-09-07T04:58:54.122Z,99.90
2022-09-07T05:01:22.680Z,99.90
2022-09-07T05:03:50.265Z,99.90
2022-09-07T05:06:18.025Z,99.90
2022-09-07T05:08:47.303Z,99.90
2022-09-07T05:11:15.161Z,99.90
2022-09-07T05:13:42.403Z,99.90
2022-09-07T05:16:14.347Z,99.90
2022-09-07T05:18:42.238Z,99.90
2022-09-07T05:21:14.305Z,99.90
2022-09-07T05:23:41.965Z,99.90
2022-09-07T05:26:09.519Z,99.90
2022-09-07T05:28:36.991Z,99.90
2022-09-07T05:36:38.024Z,99.90
2022-09-07T05:39:05.574Z,99.90
2022-09-07T05:41:32.855Z,99.90
2022-09-07T05:46:47.268Z,99.90
2022-09-07T05:49:14.491Z,99.90
2022-09-07T05:51:41.706Z,99.90
2022-09-07T05:54:10.756Z,99.90
2022-09-07T05:56:38.013Z,99.90
2022-09-07T05:59:05.243Z,99.90
2022-09-07T06:01:32.673Z,99.90
2022-09-07T06:04:00.515Z,99.90
2022-09-07T06:06:27.709Z,99.90
2022-09-07T06:08:55.004Z,99.90
2022-09-07T06:11:23.162Z,99.90
2022-09-07T06:13:50.468Z,99.90
2022-09-07T06:16:18.513Z,99.90
2022-09-07T06:18:47.447Z,99.90
2022-09-07T06:21:22.110Z,99.90
2022-09-07T06:23:49.543Z,99.90
2022-09-07T06:26:17.376Z,99.90
2022-09-07T06:28:48.824Z,99.90
2022-09-07T06:31:18.494Z,99.90
2022-09-07T06:33:46.101Z,99.90
2022-09-07T06:36:18.226Z,99.90
2022-09-07T06:38:45.664Z,99.90
2022-09-07T06:44:02.522Z,99.90
2022-09-07T06:49:17.274Z,99.90
2022-09-07T06:51:44.456Z,99.90
2022-09-07T06:56:58.843Z,99.90
2022-09-07T06:59:26.056Z,99.90
2022-09-07T07:01:53.305Z,99.90
2022-09-07T07:04:20.610Z,99.90
2022-09-07T07:06:47.805Z,99.90
2022-09-07T07:09:14.982Z,99.90
2022-09-07T07:11:43.592Z,99.90
2022-09-07T07:14:14.359Z,99.90
2022-09-07T07:16:41.764Z,99.90
2022-09-07T07:19:09.203Z,99.90
2022-09-07T07:22:02.001Z,99.90
2022-09-07T07:24:23.889Z,99.90
2022-09-07T07:26:51.199Z,99.90
2022-09-07T07:29:18.931Z,99.90
2022-09-07T07:31:47.067Z,99.90
2022-09-07T07:34:15.148Z,99.90
2022-09-07T07:36:42.385Z,99.90
2022-09-07T07:41:59.023Z,99.90
2022-09-07T07:44:28.929Z,99.90
2022-09-07T07:46:56.102Z,99.90
2022-09-07T07:49:23.336Z,99.90
2022-09-07T07:54:37.662Z,99.90
2022-09-07T07:57:05.563Z,99.90
2022-09-07T07:59:33.058Z,99.90
2022-09-07T08:02:04.814Z,99.90
2022-09-07T08:04:33.397Z,99.90
2022-09-07T08:07:04.425Z,99.90
2022-09-07T08:09:33.162Z,99.90
2022-09-07T08:12:01.674Z,99.90
2022-09-07T08:14:28.809Z,99.90
2022-09-07T08:16:55.938Z,99.90
2022-09-07T08:19:23.124Z,99.90
2022-09-07T08:21:50.261Z,99.90
2022-09-07T08:24:17.397Z,99.90
2022-09-07T08:26:44.695Z,99.90
2022-09-07T08:29:11.877Z,99.90
2022-09-07T08:31:39.060Z,99.90
2022-09-07T08:34:07.615Z,99.90
2022-09-07T08:36:34.726Z,99.90
2022-09-07T08:39:01.959Z,99.90
2022-09-07T08:41:34.856Z,99.90
2022-09-07T08:44:20.866Z,99.90
2022-09-07T08:46:50.036Z,99.90
2022-09-07T08:49:37.143Z,99.90
2022-09-07T08:52:12.898Z,99.90
2022-09-07T08:54:40.510Z,99.90
2022-09-07T08:57:23.953Z,99.90
2022-09-07T09:00:07.825Z,99.90
2022-09-07T09:02:42.495Z,99.90
2022-09-07T09:05:53.380Z,99.90
2022-09-07T09:08:40.450Z,99.90
2022-09-07T09:11:18.843Z,99.90
2022-09-07T09:13:56.739Z,99.90
2022-09-07T09:16:28.849Z,99.90
2022-09-07T09:19:06.167Z,99.90
2022-09-07T09:21:34.942Z,99.90
2022-09-07T09:24:09.356Z,99.90
2022-09-07T09:26:36.510Z,99.90
2022-09-07T09:29:22.721Z,99.90
2022-09-07T09:31:49.864Z,99.90
2022-09-07T09:34:19.129Z,99.90
2022-09-07T09:36:51.385Z,99.90
2022-09-07T09:39:37.472Z,99.90
2022-09-07T09:42:14.665Z,99.90
2022-09-07T09:44:42.046Z,99.90
2022-09-07T09:47:30.057Z,99.90
2022-09-07T09:50:01.273Z,99.90
2022-09-07T09:52:30.747Z,99.90
2022-09-07T09:55:17.219Z,99.90
2022-09-07T10:03:57.502Z,99.90
2022-09-07T10:06:26.669Z,99.90
2022-09-07T10:08:53.752Z,99.90
2022-09-07T10:11:21.098Z,99.90
2022-09-07T10:13:55.730Z,99.90
2022-09-07T10:16:39.330Z,99.90
2022-09-07T10:19:06.477Z,99.90
2022-09-07T10:21:33.593Z,99.90
2022-09-07T10:24:13.171Z,99.90
2022-09-07T10:26:40.522Z,99.90
2022-09-07T10:29:08.886Z,99.90
2022-09-07T10:31:38.633Z,99.90
2022-09-07T10:34:31.033Z,99.90
2022-09-07T10:37:08.866Z,99.90
2022-09-07T10:39:41.507Z,99.90
2022-09-07T10:42:28.956Z,99.90
2022-09-07T10:45:15.174Z,99.90
2022-09-07T10:48:02.152Z,99.90
2022-09-07T10:50:31.787Z,99.90
2022-09-07T10:53:39.006Z,99.90
2022-09-07T10:56:12.823Z,99.90
2022-09-07T11:02:00.211Z,99.90
2022-09-07T11:04:39.817Z,99.90
2022-09-07T11:07:24.206Z,99.90
2022-09-07T11:10:24.597Z,99.90
2022-09-07T11:12:52.085Z,99.90
2022-09-07T11:15:25.647Z,99.90
2022-09-07T11:18:03.795Z,99.90
2022-09-07T11:20:55.102Z,99.90
2022-09-07T11:23:32.391Z,99.90
2022-09-07T11:26:07.680Z,99.90
2022-09-07T11:28:47.624Z,99.90
2022-09-07T11:31:41.819Z,99.90
2022-09-07T11:34:27.290Z,99.90
2022-09-07T11:37:16.081Z,99.90
2022-09-07T11:39:44.372Z,99.90
2022-09-07T11:45:38.533Z,99.90
2022-09-07T11:48:30.424Z,99.90
2022-09-07T11:51:06.023Z,99.90
2022-09-07T11:53:37.372Z,99.90
2022-09-07T11:56:15.242Z,99.90
2022-09-07T11:59:00.536Z,99.90
2022-09-07T12:01:30.410Z,99.90
2022-09-07T12:04:24.735Z,99.90
2022-09-07T12:07:06.132Z,99.90
2022-09-07T12:09:41.409Z,99.90
2022-09-07T12:12:22.093Z,99.90
2022-09-07T12:14:57.088Z,99.90
2022-09-07T12:17:49.827Z,99.90
2022-09-07T12:20:21.241Z,99.90
2022-09-07T12:23:04.206Z,99.90
2022-09-07T12:25:33.399Z,99.90
2022-09-07T12:28:00.779Z,99.90
2022-09-07T12:30:30.035Z,99.90
2022-09-07T12:32:58.596Z,99.90
2022-09-07T12:35:41.274Z,99.90
2022-09-07T12:38:31.483Z,99.90
2022-09-07T12:41:04.836Z,99.90
2022-09-07T12:43:32.517Z,99.90
2022-09-07T12:46:00.777Z,99.90
2022-09-07T12:48:43.537Z,99.90
2022-09-07T12:54:27.675Z,99.90
2022-09-07T13:00:24.247Z,99.90
2022-09-07T13:03:49.572Z,99.90
2022-09-07T13:06:05.999Z,99.90
2022-09-07T13:08:42.031Z,99.90
2022-09-07T13:11:18.930Z,99.90
2022-09-07T13:14:06.257Z,99.90
2022-09-07T13:20:05.183Z,99.90
2022-09-07T13:22:32.252Z,99.90
2022-09-07T13:25:00.816Z,99.90
2022-09-07T13:27:51.251Z,99.90
2022-09-07T13:30:27.830Z,99.90
2022-09-07T13:33:24.260Z,99.30
2022-09-07T13:35:55.406Z,98.40
2022-09-07T13:38:22.597Z,98.60
2022-09-07T13:40:50.352Z,98.30
2022-09-07T13:43:19.958Z,96.40
2022-09-07T13:45:53.265Z,97.00
2022-09-07T13:48:35.558Z,98.00
2022-09-07T13:51:10.359Z,98.20
2022-09-07T13:54:14.857Z,98.70
2022-09-07T13:57:04.627Z,97.40
2022-09-07T13:59:33.973Z,95.60
2022-09-07T14:02:01.215Z,95.70
2022-09-07T14:04:37.983Z,95.00
2022-09-07T14:07:15.154Z,95.80
2022-09-07T14:09:42.401Z,94.70
2022-09-07T14:12:16.787Z,94.30
2022-09-07T14:14:43.947Z,93.40
2022-09-07T14:17:14.019Z,94.50
2022-09-07T14:19:42.827Z,92.00
2022-09-07T14:22:15.525Z,92.10
2022-09-07T14:24:56.790Z,92.00
2022-09-07T14:27:25.823Z,92.30
2022-09-07T14:29:53.075Z,92.70
2022-09-07T14:32:24.202Z,93.50
2022-09-07T14:34:51.359Z,93.50
2022-09-07T14:37:21.234Z,94.30
2022-09-07T14:39:49.554Z,94.50
2022-09-07T14:42:20.629Z,94.20
2022-09-07T14:44:49.353Z,93.30
2022-09-07T14:47:29.261Z,94.10
2022-09-07T14:49:58.136Z,94.70
2022-09-07T14:52:43.642Z,94.60
2022-09-07T14:55:25.844Z,93.60
2022-09-07T14:58:14.947Z,93.20
2022-09-07T15:00:43.450Z,94.70
2022-09-07T15:03:27.584Z,94.20
2022-09-07T15:06:01.600Z,94.20
2022-09-07T15:08:45.902Z,94.30
2022-09-07T15:14:08.595Z,93.80
2022-09-07T15:16:38.883Z,93.70
2022-09-07T15:19:15.109Z,93.80
2022-09-07T15:21:42.579Z,93.30
2022-09-07T15:24:09.910Z,94.30
2022-09-07T15:29:28.871Z,95.10
2022-09-07T15:32:03.249Z,95.20
2022-09-07T15:34:32.086Z,94.90
2022-09-07T15:37:00.282Z,94.80
2022-09-07T15:39:29.741Z,95.00
2022-09-07T15:41:58.205Z,95.70
2022-09-07T15:44:28.491Z,95.70
2022-09-07T15:49:50.056Z,96.20
2022-09-07T15:52:18.428Z,96.40
2022-09-07T15:54:45.694Z,96.70
2022-09-07T15:59:59.971Z,97.40
2022-09-07T16:05:14.368Z,97.80
2022-09-07T16:10:31.157Z,97.50
2022-09-07T16:13:01.168Z,97.80
2022-09-07T16:15:29.498Z,97.70
2022-09-07T16:17:56.661Z,97.30
2022-09-07T16:20:23.809Z,97.80
2022-09-07T16:25:39.645Z,98.70
2022-09-07T16:28:07.020Z,99.20
2022-09-07T16:30:34.199Z,99.60
2022-09-07T16:33:01.489Z,99.80
2022-09-07T16:35:28.681Z,99.90
2022-09-07T16:40:43.795Z,99.90
2022-09-07T16:43:10.969Z,99.90
2022-09-07T16:48:25.205Z,99.90
2022-09-07T16:51:00.305Z,99.90
2022-09-07T16:53:29.469Z,99.90
2022-09-07T16:56:03.894Z,99.90
2022-09-07T16:58:39.518Z,99.90
2022-09-07T17:01:07.574Z,99.90
2022-09-07T17:03:36.310Z,99.90
2022-09-07T17:06:04.103Z,99.90
2022-09-07T17:08:32.172Z,99.90
2022-09-07T17:11:00.812Z,99.90
2022-09-07T17:13:28.269Z,99.90
2022-09-07T17:15:58.922Z,99.90
2022-09-07T17:21:13.241Z,99.90
2022-09-07T17:23:49.443Z,99.90
2022-09-07T17:26:22.374Z,99.90
2022-09-07T17:28:50.216Z,99.90
2022-09-07T17:34:09.918Z,99.90
2022-09-07T17:36:37.049Z,99.90
2022-09-07T17:39:20.098Z,99.90
2022-09-07T17:41:48.243Z,99.90
2022-09-07T17:44:15.513Z,99.90
2022-09-07T17:46:42.703Z,99.90
2022-09-07T17:49:12.122Z,99.90
2022-09-07T17:51:39.521Z,99.90
2022-09-07T17:54:10.965Z,99.90
2022-09-07T17:56:38.739Z,99.90
2022-09-07T18:01:55.737Z,99.90
2022-09-07T18:04:23.012Z,99.90
2022-09-07T18:06:50.395Z,99.90
2022-09-07T18:09:17.700Z,99.90
2022-09-07T18:11:46.734Z,99.90
2022-09-07T18:14:15.308Z,99.90
2022-09-07T18:16:43.221Z,99.90
2022-09-07T18:19:10.930Z,99.90
2022-09-07T18:21:38.337Z,99.90
2022-09-07T18:24:07.566Z,99.90
2022-09-07T18:26:36.225Z,99.90
2022-09-07T18:29:04.049Z,99.90
2022-09-07T18:31:32.181Z,99.90
2022-09-07T18:34:01.420Z,99.90
2022-09-07T18:36:29.125Z,99.90
2022-09-07T18:38:56.383Z,99.90
2022-09-07T18:41:24.859Z,99.90
2022-09-07T18:43:52.690Z,99.90
2022-09-07T18:46:21.247Z,99.90
2022-09-07T18:48:48.493Z,99.90
2022-09-07T18:51:15.850Z,99.90
2022-09-07T18:53:43.425Z,99.90
2022-09-07T18:56:14.271Z,99.90
2022-09-07T18:58:41.804Z,99.90
2022-09-07T19:01:13.900Z,99.90
2022-09-07T19:03:41.398Z,99.90
2022-09-07T19:06:10.586Z,99.90
2022-09-07T19:08:38.065Z,99.90
2022-09-07T19:11:06.880Z,99.90
2022-09-07T19:13:34.667Z,99.90
2022-09-07T19:16:09.352Z,99.90
2022-09-07T19:18:36.575Z,99.90
2022-09-07T19:21:08.535Z,99.90
2022-09-07T19:23:35.961Z,99.90
2022-09-07T19:26:04.809Z,99.90
2022-09-07T19:28:32.065Z,99.90
2022-09-07T19:31:06.345Z,99.90
2022-09-07T19:33:35.019Z,99.90
2022-09-07T19:36:05.790Z,99.90
2022-09-07T19:38:33.179Z,99.90
2022-09-07T19:41:00.666Z,99.90
2022-09-07T19:43:32.700Z,99.90
2022-09-07T19:46:00.649Z,99.90
2022-09-07T19:48:27.825Z,99.90
2022-09-07T19:50:54.968Z,99.90
2022-09-07T19:53:22.835Z,99.90
2022-09-07T19:55:50.674Z,99.90
2022-09-07T19:58:17.830Z,99.90
2022-09-07T20:00:44.978Z,99.90
2022-09-07T20:03:12.107Z,99.90
2022-09-07T20:05:42.370Z,99.90
2022-09-07T20:08:09.588Z,99.90
2022-09-07T20:10:36.826Z,99.90
2022-09-07T20:13:04.510Z,99.90
2022-09-07T20:15:31.686Z,99.90
2022-09-07T20:17:59.092Z,99.90
2022-09-07T20:20:26.337Z,99.90
2022-09-07T20:22:53.442Z,99.90
2022-09-07T20:25:20.750Z,99.90
2022-09-07T20:27:47.967Z,99.90
2022-09-07T20:30:16.627Z,99.90
2022-09-07T20:32:44.064Z,99.90
2022-09-07T20:35:11.210Z,99.90
2022-09-07T20:37:38.321Z,99.90
2022-09-07T20:40:06.342Z,99.90
2022-09-07T20:42:33.585Z,99.90
2022-09-07T20:45:02.110Z,99.90
2022-09-07T20:47:29.411Z,99.90
2022-09-07T20:49:56.604Z,99.90
2022-09-07T20:52:23.760Z,99.90
2022-09-07T20:54:51.096Z,99.90
2022-09-07T20:57:18.266Z,99.90
2022-09-07T20:59:45.390Z,99.90
2022-09-07T21:02:12.601Z,99.90
2022-09-07T21:04:41.810Z,99.90
2022-09-07T21:07:09.342Z,99.90
2022-09-07T21:09:36.507Z,99.90
2022-09-07T21:12:03.782Z,99.90
2022-09-07T21:14:30.906Z,99.90
2022-09-07T21:16:58.025Z,99.90
2022-09-07T21:19:25.146Z,99.90
2022-09-07T21:21:52.258Z,99.90
2022-09-07T21:24:21.161Z,99.90
2022-09-07T21:26:48.617Z,99.90
2022-09-07T21:29:20.785Z,99.90
2022-09-07T21:31:48.052Z,99.90
2022-09-07T21:34:15.705Z,99.90
2022-09-07T21:36:42.894Z,99.90
2022-09-07T21:39:13.841Z,99.90
2022-09-07T21:41:42.252Z,99.90
2022-09-07T21:44:10.981Z,99.90
2022-09-07T21:46:39.506Z,99.90
2022-09-07T21:49:06.698Z,99.90
2022-09-07T21:51:33.991Z,99.90
2022-09-07T21:54:01.391Z,99.90
2022-09-07T21:56:28.977Z,99.90
2022-09-07T21:58:59.873Z,99.90
2022-09-07T22:01:27.801Z,99.90
2022-09-07T22:03:56.925Z,99.90
2022-09-07T22:06:27.207Z,99.90
2022-09-07T22:08:54.695Z,99.90
2022-09-07T22:11:23.076Z,99.90
2022-09-07T22:13:54.358Z,99.90
2022-09-07T22:16:21.934Z,99.90
2022-09-07T22:18:49.149Z,99.90
2022-09-07T22:21:18.590Z,99.90
2022-09-07T22:23:47.451Z,99.90
2022-09-07T22:26:15.177Z,99.90
2022-09-07T22:28:43.235Z,99.90
2022-09-07T22:31:15.985Z,99.90
2022-09-07T22:33:43.525Z,99.90
2022-09-07T22:36:15.391Z,99.90
2022-09-07T22:38:43.051Z,99.90
2022-09-07T22:41:17.733Z,99.90
2022-09-07T22:43:45.059Z,99.90
2022-09-07T22:46:12.689Z,99.90
2022-09-07T22:48:40.367Z,99.90
2022-09-07T22:51:07.609Z,99.90
2022-09-07T22:53:36.494Z,99.90
2022-09-07T22:56:11.783Z,99.90
2022-09-07T22:58:39.131Z,99.90
2022-09-07T23:01:06.457Z,99.90
2022-09-07T23:03:34.338Z,99.90
2022-09-07T23:06:02.046Z,99.90
2022-09-07T23:08:29.473Z,99.90
2022-09-07T23:11:01.355Z,99.90
2022-09-07T23:13:28.479Z,99.90
2022-09-07T23:15:55.631Z,99.90
2022-09-07T23:18:22.933Z,99.90
2022-09-07T23:20:50.049Z,99.90
2022-09-07T23:23:17.434Z,99.90
2022-09-07T23:25:44.566Z,99.90
2022-09-07T23:28:12.201Z,99.90
2022-09-07T23:30:40.498Z,99.90
2022-09-07T23:33:07.618Z,99.90
2022-09-07T23:35:34.760Z,99.90
2022-09-07T23:38:01.925Z,99.90
2022-09-07T23:40:30.323Z,99.90
2022-09-07T23:42:57.945Z,99.90
2022-09-07T23:45:25.130Z,99.90
2022-09-07T23:47:52.256Z,99.90
2022-09-07T23:50:19.517Z,99.90
2022-09-07T23:52:47.132Z,99.90
2022-09-07T23:55:14.284Z,99.90
2022-09-07T23:57:41.402Z,99.90
